< Typhoon 196919 1970 Season Typhoon 197002 >
Typhoon 197001 (NANCY)
General InformationTrack Information on Google Maps || Disaster Info.ResourceGoogle EarthGE AnimationAtom FeedGeoJSON
Detalied Best Track (Time Zone = UTC)
Year Month Day Hour Lat. Long. Pressure (hPa) Wind (kt) Class Image Chart
1970 2 19 00 7.0 151.4 1006 0 2 -- Chart
1970 2 19 06 7.5 151.0 1002 0 2 -- Chart
1970 2 19 12 8.0 150.5 998 0 2 -- Chart
1970 2 19 18 8.4 149.8 992 0 2 -- Chart
1970 2 20 00 8.7 148.9 985 0 9 -- Chart
1970 2 20 06 8.9 148.1 990 0 9 -- Chart
1970 2 20 12 8.5 147.6 990 0 9 -- Chart
1970 2 20 18 8.4 147.2 990 0 9 -- Chart
1970 2 21 00 8.7 146.5 990 0 9 -- Chart
1970 2 21 06 8.6 145.6 985 0 9 -- Chart
1970 2 21 12 8.5 144.6 985 0 9 -- Chart
1970 2 21 18 8.2 143.7 980 0 9 -- Chart
1970 2 22 00 8.1 142.4 980 0 9 -- Chart
1970 2 22 06 8.2 141.1 975 0 9 -- Chart
1970 2 22 12 8.6 140.0 970 0 9 -- Chart
1970 2 22 18 8.9 138.3 965 0 9 -- Chart
1970 2 23 00 9.2 136.9 960 0 9 -- Chart
1970 2 23 06 9.2 135.6 960 0 9 -- Chart
1970 2 23 12 9.4 134.2 960 0 9 -- Chart
1970 2 23 18 9.9 132.7 955 0 9 -- Chart
1970 2 24 00 10.3 131.0 955 0 9 -- Chart
1970 2 24 06 10.8 129.3 950 0 9 -- Chart
1970 2 24 12 11.4 127.7 950 0 9 -- Chart
1970 2 24 18 12.1 126.5 955 0 9 -- Chart
1970 2 25 00 13.0 125.5 960 0 9 -- Chart
1970 2 25 06 13.8 124.5 955 0 9 -- Chart
1970 2 25 12 14.6 124.0 950 0 9 -- Chart
1970 2 25 18 15.4 123.7 950 0 9 -- Chart
1970 2 26 00 16.4 123.6 955 0 9 -- Chart
1970 2 26 06 17.5 123.9 965 0 9 -- Chart
1970 2 26 12 18.6 124.4 975 0 9 -- Chart
1970 2 26 18 19.7 124.9 985 0 9 -- Chart
1970 2 27 00 20.5 125.3 985 0 9 -- Chart
1970 2 27 06 21.0 125.6 994 0 9 -- Chart
1970 2 27 12 21.9 127.1 1002 0 2 -- Chart
1970 2 27 18 22.6 129.0 1006 0 2 -- Chart
1970 2 28 00 23.0 131.0 1006 0 2 -- Chart
Japan Meteorological Agency Best Track Data | Correction Date : 1989-06-01
< Typhoon 196919 1970 Season Typhoon 197002 >

Help